• Join FlightAware (Why Join?)
  • Login
  • US Flag 
11:58AM EDT


 

Airport Tracker/Info


-or-


 

Live Flight TrackerFlight Track Log ✈ N502QS ✈ 27-Jun-2013 ✈ KIAH - KMLU

Flight Track Log - Related Links

Times and Time Zones

All times are in EDT time to prevent confusion due to time zone crossing. See the N502QS flight status page for this flight to view local times or setup timezone preferences in your user account.

Time Position Orientation Groundspeed Altitude Reporting Facility
EDT Latitude Longitude Course Direction KTS MPH feet Rate Location/Type
04:50PM 29.9639 -95.4133 272° West 276 318 4,000  Level Houston Center
04:51PM 30.0347 -95.4072 North 272 313 4,000  Level Houston Center
04:52PM 30.1094 -95.3981 North 271 312 4,000 1,140 Level Houston Center
04:54PM 30.1967 -95.3875 North 275 316 6,500 2,880 Climbing Houston Center
04:55PM 30.2606 -95.3036 49° Northeast 284 327 11,000 2,700 Climbing Houston Center
04:56PM 30.3094 -95.2019 61° Northeast 356 410 12,900 2,340 Climbing Houston Center
04:57PM 30.3617 -95.0944 61° Northeast 377 434 15,900 2,940 Climbing Houston Center
04:58PM 30.4358 -94.9800 53° Northeast 408 470 19,000 2,460 Climbing Houston Center
04:59PM 30.5358 -94.9053 33° Northeast 426 490 21,000 960 Climbing Houston Center
05:00PM 30.6347 -94.8278 34° Northeast 430 495 21,000  Level Houston Center
05:01PM 30.7275 -94.7436 38° Northeast 427 491 21,000  Level Houston Center
05:02PM 30.8031 -94.6361 51° Northeast 429 494 21,000  Level Houston Center
05:03PM 30.8908 -94.5058 52° Northeast 430 495 21,000  Level Houston Center
05:04PM 30.9647 -94.3961 52° Northeast 433 498 21,000  Level Houston Center
05:05PM 31.0361 -94.2889 52° Northeast 424 488 21,000  Level Houston Center
05:07PM 31.1003 -94.1778 56° Northeast  Level FlightAware Approximate
05:07PM 31.1825 -94.0689 56° Northeast 430 495 21,000  Level Houston Center
05:08PM 31.2708 -93.9378 52° Northeast 428 493 21,000  Level Houston Center
05:09PM 31.3422 -93.8283 53° Northeast 426 490 21,000  Level Houston Center
05:10PM 31.4156 -93.7181 52° Northeast 428 493 21,000  Level Houston Center
05:11PM 31.4883 -93.6083 52° Northeast 428 493 21,000  Level Houston Center
05:12PM 31.5681 -93.4861 53° Northeast 428 493 21,000  Level Houston Center
05:13PM 31.6411 -93.3742 53° Northeast 429 494 21,000  Level Houston Center
05:15PM 31.7144 -93.2633 52° Northeast 428 493 21,000 -840 Level Houston Center
05:16PM 31.7839 -93.1542 53° Northeast 421 484 19,300 -1,680 Descending Houston Center
05:17PM 31.8469 -93.0569 53° Northeast 386 444 17,600 -1,680 Descending Houston Center
05:18PM 31.9106 -92.9586 53° Northeast 378 435 15,900 -1,800 Descending Houston Center
05:19PM 31.9856 -92.8406 53° Northeast 374 430 13,900 -1,800 Descending Houston Center
05:20PM 32.0467 -92.7461 53° Northeast 367 422 12,300 -1,500 Descending Houston Center
05:21PM 32.0994 -92.6636 53° Northeast 327 376 10,900 -1,320 Descending Houston Center
05:22PM 32.1478 -92.5867 53° Northeast 298 343 9,600 -1,260 Descending Houston Center